Laughlin Air Force Base
KDLF : now visible

Airfield :











YOU CAN JOIN US ON...

 
LOGIN :

Register | Disclaimer

   EN    FR    IT 

 









Legend :    VFR   Marginal VFR   IFR   Intensive IFR   Very Intensive IFR
Visi :
Ceiling :
>= 8 km
>= 3000ft
5 to 8 km
1000 to 3000 ft
1500m to 5 km
500 to 1000 ft
800 to 1500m
200 to 500 ft
< 800m
< 200 ft
Symbols :   Thunderstorms  Fog  Heavy snow  Heavy precipitations  Wind > 20 kt







- Airport Elevation : 1082 ft


KDLF - Laughlin Air Force Base

CURRENT METAR :
  • 260356Z AUTO 14009KT 10SM CLR 32/20 A2977 RMK AO2 SLP066 T03170200 $

EXPIRED METARs :
  • 260256Z AUTO 13008KT 10SM CLR 32/19 A2976 RMK AO2 SLP063 T03220194 53018 $
  • 260156Z AUTO 13007KT 10SM CLR 34/20 A2974 RMK AO2 SLP056 T03410201 $

TAF AMD TAF KDLF
Valid from the 26 at 00:00 until the 27 at 00:00 UTC


260032Z 2600/2624 16012KT 9999 SCT050 QNH2971INS
BECMG 2602/2603 16009KT 9999 SKC QNH2973INS
BECMG 2617/2618 15010G15KT 9999 SCT050 SCT250 QNH2964INS TX39/2620Z TN27/2611Z LAST NO AMDS AFT 2600 NEXT 2610
No reported NOTAMs for that airfield.



MET'MAP, your aeronautical weather chart ! - Copyright ORBIFLY December 2007 - Disclaimer

ORBIFLY MET'MAP TEAM :

Programming & Development : Alexandra Zaïnal
Concept & Development : Baudouin d'Aumeries
Co-Development & Prog : Marc-Olivier Méhu
Technical & hardware support : Manuel Goepfert

Contact : metmap@orbifly.com




SOURCES & CREDITS :

   NOAA       Earth
Advisory